createdAt,value
2022-11-06T00:00:34.771Z,3.90
2022-11-06T00:03:03.628Z,3.90
2022-11-06T00:05:49.905Z,3.90
2022-11-06T00:08:26.997Z,4.13
2022-11-06T00:10:55.281Z,3.93
2022-11-06T00:13:25.055Z,4.13
2022-11-06T00:15:52.980Z,4.40
2022-11-06T00:18:21.250Z,4.60
2022-11-06T00:20:49.355Z,4.20
2022-11-06T00:23:17.301Z,4.17
2022-11-06T00:25:45.449Z,4.37
2022-11-06T00:28:13.691Z,4.30
2022-11-06T00:30:43.221Z,4.73
2022-11-06T00:33:11.732Z,4.20
2022-11-06T00:35:40.434Z,4.73
2022-11-06T00:38:08.570Z,4.80
2022-11-06T00:40:36.492Z,5.00
2022-11-06T00:43:04.503Z,5.17
2022-11-06T00:45:32.522Z,5.30
2022-11-06T00:48:01.873Z,5.70
2022-11-06T00:50:29.868Z,5.30
2022-11-06T00:52:57.931Z,5.23
2022-11-06T00:55:26.032Z,5.53
2022-11-06T00:57:53.970Z,5.10
2022-11-06T01:00:22.556Z,4.97
2022-11-06T01:02:51.052Z,5.37
2022-11-06T01:05:20.787Z,5.47
2022-11-06T01:07:48.817Z,5.63
2022-11-06T01:10:16.989Z,5.40
2022-11-06T01:12:45.156Z,5.50
2022-11-06T01:15:13.334Z,5.60
2022-11-06T01:17:41.297Z,5.20
2022-11-06T01:20:10.505Z,5.40
2022-11-06T01:22:39.943Z,5.30
2022-11-06T01:25:09.579Z,5.27
2022-11-06T01:27:37.560Z,5.27
2022-11-06T01:30:06.681Z,5.70
2022-11-06T01:32:35.604Z,5.00
2022-11-06T01:35:03.554Z,4.90
2022-11-06T01:37:31.455Z,5.20
2022-11-06T01:40:00.784Z,4.90
2022-11-06T01:42:28.775Z,5.27
2022-11-06T01:45:26.813Z,5.00
2022-11-06T01:47:54.728Z,4.70
2022-11-06T01:50:23.267Z,4.70
2022-11-06T01:52:52.794Z,4.27
2022-11-06T01:55:26.895Z,4.50
2022-11-06T01:57:56.307Z,4.10
2022-11-06T02:00:24.830Z,4.60
2022-11-06T02:02:53.320Z,3.87
2022-11-06T02:05:21.656Z,4.67
2022-11-06T02:07:50.268Z,3.87
2022-11-06T02:10:18.682Z,3.70
2022-11-06T02:12:55.820Z,3.67
2022-11-06T02:15:34.544Z,4.27
2022-11-06T02:18:30.234Z,3.30
2022-11-06T02:21:40.921Z,3.63
2022-11-06T02:24:26.629Z,3.70
2022-11-06T02:27:04.352Z,3.20
2022-11-06T02:29:36.357Z,3.63
2022-11-06T02:32:12.302Z,3.03
2022-11-06T02:34:42.496Z,3.00
2022-11-06T02:37:16.211Z,3.20
2022-11-06T02:39:47.299Z,3.03
2022-11-06T02:42:20.094Z,2.90
2022-11-06T02:44:51.863Z,3.13
2022-11-06T02:47:22.369Z,3.33
2022-11-06T02:49:55.064Z,2.77
2022-11-06T02:52:26.503Z,2.70
2022-11-06T02:54:59.104Z,3.07
2022-11-06T02:57:31.412Z,2.80
2022-11-06T03:00:03.855Z,3.00
2022-11-06T03:02:37.216Z,2.53
2022-11-06T03:05:10.064Z,2.50
2022-11-06T03:07:44.221Z,2.73
2022-11-06T03:10:13.380Z,2.80
2022-11-06T03:12:53.085Z,2.50
2022-11-06T03:15:27.681Z,2.83
2022-11-06T03:18:03.293Z,2.50
2022-11-06T03:20:37.074Z,2.20
2022-11-06T03:23:13.416Z,2.30
2022-11-06T03:25:47.640Z,2.63
2022-11-06T03:28:28.392Z,2.57
2022-11-06T03:30:59.643Z,2.73
2022-11-06T03:33:35.435Z,2.27
2022-11-06T03:36:07.500Z,2.30
2022-11-06T03:38:42.211Z,2.20
2022-11-06T03:41:15.957Z,2.73
2022-11-06T03:43:50.205Z,2.23
2022-11-06T03:46:25.030Z,2.37
2022-11-06T03:49:02.080Z,2.77
2022-11-06T03:51:35.174Z,2.53
2022-11-06T03:54:08.077Z,2.43
2022-11-06T03:56:42.018Z,2.47
2022-11-06T03:59:15.141Z,2.50
2022-11-06T04:01:47.763Z,2.60
2022-11-06T04:04:22.926Z,2.90
2022-11-06T04:06:57.396Z,2.30
2022-11-06T04:09:59.197Z,2.20
2022-11-06T04:12:58.774Z,2.37
2022-11-06T04:15:34.213Z,2.43
2022-11-06T04:18:02.153Z,2.87
2022-11-06T04:21:04.561Z,2.53
2022-11-06T04:23:39.340Z,2.33
2022-11-06T04:26:33.896Z,2.80
2022-11-06T04:29:11.712Z,2.57
2022-11-06T04:31:48.267Z,2.60
2022-11-06T04:34:22.159Z,2.93
2022-11-06T04:36:59.306Z,2.80
2022-11-06T04:39:31.162Z,2.90
2022-11-06T04:42:05.726Z,2.00
2022-11-06T04:44:38.343Z,2.20
2022-11-06T04:47:11.165Z,2.27
2022-11-06T04:49:41.833Z,2.10
2022-11-06T04:52:13.859Z,2.30
2022-11-06T04:54:42.280Z,2.87
2022-11-06T04:57:10.324Z,2.33
2022-11-06T04:59:39.208Z,2.20
2022-11-06T05:02:08.704Z,2.00
2022-11-06T05:04:36.699Z,2.37
2022-11-06T05:07:04.698Z,2.77
2022-11-06T05:09:32.704Z,2.30
2022-11-06T05:12:00.711Z,2.17
2022-11-06T05:14:28.731Z,2.47
2022-11-06T05:16:56.688Z,2.10
2022-11-06T05:19:26.095Z,2.43
2022-11-06T05:22:11.667Z,2.30
2022-11-06T05:24:39.526Z,2.33
2022-11-06T05:27:07.714Z,2.20
2022-11-06T05:29:35.595Z,2.10
2022-11-06T05:32:03.585Z,2.43
2022-11-06T05:34:33.094Z,2.40
2022-11-06T05:37:01.094Z,2.13
2022-11-06T05:39:29.185Z,2.50
2022-11-06T05:41:58.274Z,2.03
2022-11-06T05:44:26.421Z,2.03
2022-11-06T05:46:54.398Z,2.00
2022-11-06T05:49:22.286Z,2.07
2022-11-06T05:51:51.691Z,2.13
2022-11-06T05:54:19.883Z,1.90
2022-11-06T05:56:48.043Z,1.77
2022-11-06T05:59:16.351Z,1.97
2022-11-06T06:01:44.503Z,1.90
2022-11-06T06:04:12.562Z,2.37
2022-11-06T06:06:40.802Z,2.00
2022-11-06T06:09:10.363Z,1.93
2022-11-06T06:11:38.427Z,1.80
2022-11-06T06:14:06.497Z,1.90
2022-11-06T06:16:34.544Z,2.07
2022-11-06T06:19:02.915Z,1.80
2022-11-06T06:21:31.416Z,1.87
2022-11-06T06:23:59.377Z,2.20
2022-11-06T06:26:28.844Z,1.80
2022-11-06T06:28:56.888Z,1.73
2022-11-06T06:31:25.222Z,2.20
2022-11-06T06:33:53.307Z,2.00
2022-11-06T06:36:21.351Z,1.93
2022-11-06T06:38:49.344Z,2.03
2022-11-06T06:41:17.380Z,2.03
2022-11-06T06:43:49.558Z,2.30
2022-11-06T06:46:18.348Z,2.00
2022-11-06T06:48:46.643Z,1.90
2022-11-06T06:51:17.372Z,1.70
2022-11-06T06:53:47.780Z,2.20
2022-11-06T06:56:16.157Z,1.93
2022-11-06T06:58:44.459Z,1.93
2022-11-06T07:01:14.202Z,2.10
2022-11-06T07:03:42.883Z,2.07
2022-11-06T07:06:11.143Z,2.17
2022-11-06T07:08:39.362Z,2.13
2022-11-06T07:11:10.370Z,1.70
2022-11-06T07:13:38.727Z,2.03
2022-11-06T07:16:09.180Z,2.00
2022-11-06T07:18:40.083Z,1.90
2022-11-06T07:21:09.736Z,2.07
2022-11-06T07:23:37.957Z,1.67
2022-11-06T07:26:06.938Z,2.03
2022-11-06T07:28:34.898Z,1.83
2022-11-06T07:31:04.878Z,2.00
2022-11-06T07:33:33.060Z,1.90
2022-11-06T07:36:06.017Z,1.77
2022-11-06T07:38:35.326Z,1.50
2022-11-06T07:41:04.859Z,2.00
2022-11-06T07:43:33.471Z,1.93
2022-11-06T07:46:02.374Z,2.20
2022-11-06T07:48:31.519Z,1.70
2022-11-06T07:50:59.708Z,2.00
2022-11-06T07:53:29.375Z,1.83
2022-11-06T07:55:57.721Z,2.00
2022-11-06T07:58:28.683Z,2.10
2022-11-06T08:01:02.640Z,1.90
2022-11-06T08:03:30.803Z,1.83
2022-11-06T08:05:59.336Z,1.80
2022-11-06T08:08:31.434Z,1.77
2022-11-06T08:11:03.370Z,2.00
2022-11-06T08:13:33.941Z,1.70
2022-11-06T08:16:05.519Z,1.60
2022-11-06T08:18:33.893Z,2.07
2022-11-06T08:21:02.051Z,1.83
2022-11-06T08:23:31.855Z,1.90
2022-11-06T08:26:02.637Z,1.90
2022-11-06T08:28:31.159Z,2.43
2022-11-06T08:30:59.272Z,6.87
2022-11-06T08:33:27.435Z,7.30
2022-11-06T08:35:55.467Z,2.83
2022-11-06T08:38:23.571Z,2.47
2022-11-06T08:40:53.916Z,3.57
2022-11-06T08:43:24.193Z,3.37
2022-11-06T08:45:52.161Z,3.10
2022-11-06T08:48:20.797Z,2.50
2022-11-06T08:50:48.815Z,1.87
2022-11-06T08:53:17.377Z,2.37
2022-11-06T08:55:45.881Z,2.30
2022-11-06T08:58:15.299Z,1.87
2022-11-06T09:00:43.723Z,1.87
2022-11-06T09:03:13.928Z,1.80
2022-11-06T09:05:42.765Z,1.80
2022-11-06T09:08:10.983Z,1.43
2022-11-06T09:10:40.329Z,1.87
2022-11-06T09:13:08.779Z,2.00
2022-11-06T09:15:38.361Z,1.63
2022-11-06T09:18:06.988Z,1.80
2022-11-06T09:20:35.261Z,1.93
2022-11-06T09:23:04.611Z,2.00
2022-11-06T09:25:32.742Z,1.70
2022-11-06T09:28:01.925Z,1.90
2022-11-06T09:30:32.466Z,2.40
2022-11-06T09:33:03.964Z,2.10
2022-11-06T09:35:34.650Z,1.73
2022-11-06T09:38:04.021Z,1.90
2022-11-06T09:40:35.631Z,2.00
2022-11-06T09:43:31.662Z,1.90
2022-11-06T09:46:11.186Z,3.27
2022-11-06T09:48:44.031Z,1.80
2022-11-06T09:51:20.210Z,1.80
2022-11-06T09:53:52.848Z,1.80
2022-11-06T09:56:25.341Z,1.70
2022-11-06T09:58:54.836Z,1.97
2022-11-06T10:01:27.630Z,2.07
2022-11-06T10:04:00.060Z,1.80
2022-11-06T10:06:29.649Z,1.87
2022-11-06T10:09:01.179Z,2.33
2022-11-06T10:11:46.182Z,1.80
2022-11-06T10:14:29.514Z,1.70
2022-11-06T10:17:09.067Z,2.00
2022-11-06T10:19:42.339Z,1.90
2022-11-06T10:22:16.539Z,1.60
2022-11-06T10:24:47.177Z,2.47
2022-11-06T10:27:18.878Z,1.63
2022-11-06T10:30:04.608Z,2.00
2022-11-06T10:33:18.943Z,1.70
2022-11-06T10:36:09.059Z,1.83
2022-11-06T10:38:42.526Z,1.67
2022-11-06T10:41:18.733Z,2.13
2022-11-06T10:43:52.735Z,1.83
2022-11-06T10:46:29.048Z,1.90
2022-11-06T10:49:00.392Z,2.47
2022-11-06T10:51:54.159Z,1.80
2022-11-06T10:54:32.267Z,2.20
2022-11-06T10:57:17.345Z,2.03
2022-11-06T10:59:49.686Z,2.20
2022-11-06T11:02:27.495Z,2.43
2022-11-06T11:04:58.811Z,1.83
2022-11-06T11:07:35.345Z,2.37
2022-11-06T11:10:30.569Z,1.80
2022-11-06T11:13:06.871Z,2.13
2022-11-06T11:15:44.885Z,1.90
2022-11-06T11:18:23.417Z,2.03
2022-11-06T11:20:53.068Z,2.00
2022-11-06T11:23:25.769Z,2.10
2022-11-06T11:25:56.356Z,1.67
2022-11-06T11:28:30.222Z,2.27
2022-11-06T11:31:07.996Z,1.93
2022-11-06T11:33:37.147Z,2.40
2022-11-06T11:36:07.079Z,2.10
2022-11-06T11:38:39.453Z,1.90
2022-11-06T11:41:10.046Z,2.10
2022-11-06T11:43:38.313Z,2.37
2022-11-06T11:46:21.730Z,1.80
2022-11-06T11:48:51.573Z,1.87
2022-11-06T11:51:32.744Z,2.30
2022-11-06T11:54:07.149Z,2.37
2022-11-06T11:59:39.075Z,3.10
2022-11-06T12:02:20.927Z,2.20
2022-11-06T12:04:55.020Z,2.97
2022-11-06T12:07:27.338Z,2.50
2022-11-06T12:09:57.393Z,2.30
2022-11-06T12:12:31.597Z,1.80
2022-11-06T12:15:17.978Z,2.30
2022-11-06T12:17:50.525Z,2.03
2022-11-06T12:20:23.921Z,2.40
2022-11-06T12:22:55.257Z,2.27
2022-11-06T12:25:28.715Z,2.10
2022-11-06T12:28:00.973Z,2.10
2022-11-06T12:30:32.870Z,2.23
2022-11-06T12:33:07.563Z,2.73
2022-11-06T12:35:40.601Z,2.03
2022-11-06T12:38:17.826Z,2.10
2022-11-06T12:40:51.973Z,2.20
2022-11-06T12:43:30.155Z,2.30
2022-11-06T12:46:28.038Z,1.93
2022-11-06T12:49:21.144Z,2.10
2022-11-06T12:52:00.987Z,2.30
2022-11-06T12:54:49.884Z,2.17
2022-11-06T12:57:28.351Z,2.77
2022-11-06T13:03:29.894Z,2.30
2022-11-06T13:06:10.348Z,2.10
2022-11-06T13:08:51.740Z,2.27
2022-11-06T13:11:31.555Z,2.67
2022-11-06T13:14:09.482Z,2.60
2022-11-06T13:16:42.976Z,2.40
2022-11-06T13:19:21.307Z,2.80
2022-11-06T13:22:21.586Z,2.73
2022-11-06T13:24:55.271Z,2.70
2022-11-06T13:27:32.482Z,2.27
2022-11-06T13:30:07.456Z,2.27
2022-11-06T13:32:41.946Z,2.40
2022-11-06T13:35:18.173Z,2.70
2022-11-06T13:37:54.783Z,2.20
2022-11-06T13:40:33.129Z,2.33
2022-11-06T13:43:07.136Z,2.33
2022-11-06T13:45:47.187Z,2.20
2022-11-06T13:48:49.637Z,2.20
2022-11-06T13:51:46.290Z,2.10
2022-11-06T13:54:27.716Z,2.40
2022-11-06T13:57:43.372Z,2.63
2022-11-06T14:00:30.194Z,1.77
2022-11-06T14:03:39.381Z,2.20
2022-11-06T14:06:09.700Z,2.13
2022-11-06T14:08:44.800Z,2.20
2022-11-06T14:11:17.522Z,2.03
2022-11-06T14:14:14.062Z,2.40
2022-11-06T14:16:44.582Z,2.50
2022-11-06T14:19:39.771Z,2.33
2022-11-06T14:22:27.694Z,2.33
2022-11-06T14:25:01.225Z,2.43
2022-11-06T14:28:05.586Z,2.13
2022-11-06T14:31:11.026Z,2.60
2022-11-06T14:34:00.148Z,2.40
2022-11-06T14:36:37.480Z,2.80
2022-11-06T14:39:11.782Z,2.20
2022-11-06T14:42:03.990Z,2.30
2022-11-06T14:44:42.887Z,2.07
2022-11-06T14:47:36.237Z,2.50
2022-11-06T14:50:09.497Z,1.80
2022-11-06T14:52:46.489Z,2.10
2022-11-06T14:55:28.513Z,2.27
2022-11-06T14:57:59.098Z,2.20
2022-11-06T15:00:38.357Z,2.10
2022-11-06T15:03:19.525Z,2.40
2022-11-06T15:05:52.226Z,2.40
2022-11-06T15:08:58.217Z,1.97
2022-11-06T15:11:58.739Z,2.60
2022-11-06T15:15:04.861Z,1.40
2022-11-06T15:17:36.997Z,1.50
2022-11-06T15:20:24.793Z,1.60
2022-11-06T15:23:16.450Z,1.60
2022-11-06T15:25:56.194Z,1.87
2022-11-06T15:28:31.175Z,1.63
2022-11-06T15:31:05.319Z,1.50
2022-11-06T15:33:36.614Z,1.60
2022-11-06T15:36:23.213Z,2.70
2022-11-06T15:39:34.049Z,1.90
2022-11-06T15:42:04.146Z,2.03
2022-11-06T15:44:32.242Z,1.90
2022-11-06T15:47:00.785Z,2.10
2022-11-06T15:49:28.890Z,1.90
2022-11-06T15:51:59.290Z,2.50
2022-11-06T15:54:36.047Z,2.30
2022-11-06T15:57:14.677Z,2.17
2022-11-06T15:59:44.194Z,2.03
2022-11-06T16:02:17.901Z,2.20
2022-11-06T16:04:47.381Z,2.13
2022-11-06T16:07:17.259Z,3.23
2022-11-06T16:09:46.589Z,3.07
2022-11-06T16:12:19.485Z,3.37
2022-11-06T16:14:47.681Z,2.30
2022-11-06T16:17:20.064Z,2.30
2022-11-06T16:19:50.023Z,2.90
2022-11-06T16:22:20.937Z,2.00
2022-11-06T16:24:54.328Z,2.40
2022-11-06T16:27:25.600Z,2.10
2022-11-06T16:29:56.801Z,2.43
2022-11-06T16:32:27.691Z,2.70
2022-11-06T16:34:56.262Z,2.00
2022-11-06T16:37:42.596Z,2.10
2022-11-06T16:40:49.534Z,1.97
2022-11-06T16:43:21.430Z,2.17
2022-11-06T16:45:54.905Z,2.60
2022-11-06T16:48:37.192Z,2.57
2022-11-06T16:51:08.758Z,2.27
2022-11-06T16:53:56.872Z,3.70
2022-11-06T16:56:28.357Z,2.87
2022-11-06T16:59:03.965Z,2.30
2022-11-06T17:01:40.324Z,2.60
2022-11-06T17:04:20.692Z,2.30
2022-11-06T17:06:49.989Z,2.73
2022-11-06T17:09:33.532Z,2.67
2022-11-06T17:12:03.150Z,2.67
2022-11-06T17:14:34.334Z,2.83
2022-11-06T17:17:03.388Z,2.83
2022-11-06T17:19:32.083Z,2.83
2022-11-06T17:22:00.855Z,2.60
2022-11-06T17:24:36.457Z,2.97
2022-11-06T17:27:05.567Z,3.33
2022-11-06T17:29:36.444Z,2.90
2022-11-06T17:32:05.408Z,2.47
2022-11-06T17:34:33.689Z,2.37
2022-11-06T17:37:02.198Z,2.80
2022-11-06T17:39:30.457Z,2.73
2022-11-06T17:41:58.705Z,2.73
2022-11-06T17:44:26.811Z,2.87
2022-11-06T17:46:56.348Z,2.53
2022-11-06T17:49:24.447Z,2.60
2022-11-06T17:51:58.582Z,3.03
2022-11-06T17:54:28.858Z,3.03
2022-11-06T17:56:57.898Z,2.70
2022-11-06T17:59:26.158Z,2.40
2022-11-06T18:01:59.184Z,2.63
2022-11-06T18:04:30.554Z,2.20
2022-11-06T18:07:03.201Z,2.50
2022-11-06T18:09:31.412Z,2.63
2022-11-06T18:11:59.535Z,2.40
2022-11-06T18:14:29.276Z,2.40
2022-11-06T18:16:58.856Z,2.80
2022-11-06T18:19:29.912Z,2.20
2022-11-06T18:22:01.222Z,2.40
2022-11-06T18:24:33.887Z,2.67
2022-11-06T18:27:01.923Z,2.23
2022-11-06T18:29:30.000Z,2.87
2022-11-06T18:32:07.246Z,2.60
2022-11-06T18:34:35.384Z,2.77
2022-11-06T18:37:03.534Z,2.57
2022-11-06T18:39:31.716Z,2.70
2022-11-06T18:42:00.517Z,2.70
2022-11-06T18:44:28.645Z,2.87
2022-11-06T18:46:56.625Z,2.90
2022-11-06T18:49:26.271Z,3.10
2022-11-06T18:51:56.313Z,3.00
2022-11-06T18:54:24.652Z,3.03
2022-11-06T18:56:52.782Z,3.23
2022-11-06T18:59:24.411Z,3.10
2022-11-06T19:01:52.926Z,3.30
2022-11-06T19:04:21.924Z,3.33
2022-11-06T19:06:53.760Z,3.10
2022-11-06T19:09:22.316Z,3.20
2022-11-06T19:11:50.984Z,3.13
2022-11-06T19:14:19.380Z,3.43
2022-11-06T19:16:47.787Z,3.57
2022-11-06T19:19:25.127Z,3.93
2022-11-06T19:21:55.640Z,3.47
2022-11-06T19:24:24.080Z,3.33
2022-11-06T19:26:52.370Z,3.40
2022-11-06T19:29:20.603Z,3.07
2022-11-06T19:31:48.751Z,3.30
2022-11-06T19:34:17.078Z,3.50
2022-11-06T19:36:45.541Z,3.17
2022-11-06T19:39:15.371Z,3.60
2022-11-06T19:41:43.551Z,3.33
2022-11-06T19:44:12.031Z,3.60
2022-11-06T19:46:40.602Z,3.63
2022-11-06T19:49:10.590Z,3.43
2022-11-06T19:51:41.131Z,3.67
2022-11-06T19:54:11.111Z,3.00
2022-11-06T19:57:26.857Z,3.20
2022-11-06T19:59:28.807Z,3.00
2022-11-06T20:01:57.032Z,3.00
2022-11-06T20:04:26.394Z,2.80
2022-11-06T20:06:58.458Z,3.33
2022-11-06T20:09:26.785Z,2.90
2022-11-06T20:11:56.586Z,2.83
2022-11-06T20:14:26.456Z,2.70
2022-11-06T20:16:56.808Z,2.60
2022-11-06T20:19:25.123Z,2.60
2022-11-06T20:21:53.419Z,2.83
2022-11-06T20:24:21.558Z,2.80
2022-11-06T20:26:49.803Z,2.80
2022-11-06T20:29:19.708Z,2.40
2022-11-06T20:31:48.104Z,2.73
2022-11-06T20:34:16.428Z,2.30
2022-11-06T20:36:44.604Z,2.73
2022-11-06T20:39:14.541Z,2.47
2022-11-06T20:41:42.713Z,2.40
2022-11-06T20:44:10.879Z,2.73
2022-11-06T20:46:40.477Z,2.77
2022-11-06T20:49:08.760Z,2.70
2022-11-06T20:51:59.974Z,2.80
2022-11-06T20:54:24.664Z,2.70
2022-11-06T20:56:52.643Z,2.40
2022-11-06T20:59:20.755Z,2.30
2022-11-06T21:01:50.633Z,2.07
2022-11-06T21:04:19.155Z,2.30
2022-11-06T21:06:47.165Z,2.40
2022-11-06T21:09:16.646Z,2.27
2022-11-06T21:11:44.681Z,2.17
2022-11-06T21:14:12.854Z,2.33
2022-11-06T21:16:41.988Z,2.37
2022-11-06T21:19:11.675Z,2.30
2022-11-06T21:21:40.202Z,2.30
2022-11-06T21:24:08.933Z,1.80
2022-11-06T21:26:38.682Z,2.13
2022-11-06T21:29:10.634Z,1.87
2022-11-06T21:31:44.220Z,2.07
2022-11-06T21:34:19.089Z,1.80
2022-11-06T21:36:48.231Z,1.87
2022-11-06T21:39:18.434Z,2.00
2022-11-06T21:41:47.333Z,1.97
2022-11-06T21:44:17.671Z,1.77
2022-11-06T21:46:46.394Z,1.83
2022-11-06T21:49:20.910Z,1.70
2022-11-06T21:51:50.348Z,2.03
2022-11-06T21:54:35.582Z,1.80
2022-11-06T21:57:04.012Z,1.77
2022-11-06T21:59:33.486Z,1.57
2022-11-06T22:02:04.467Z,2.13
2022-11-06T22:04:32.628Z,1.70
2022-11-06T22:07:02.657Z,1.60
2022-11-06T22:09:31.194Z,2.10
2022-11-06T22:12:00.620Z,1.83
2022-11-06T22:14:28.948Z,1.60
2022-11-06T22:16:57.153Z,1.70
2022-11-06T22:19:25.299Z,1.60
2022-11-06T22:21:55.471Z,1.63
2022-11-06T22:24:24.955Z,1.70
2022-11-06T22:26:54.897Z,1.37
2022-11-06T22:29:22.998Z,1.63
2022-11-06T22:31:52.257Z,1.67
2022-11-06T22:34:20.298Z,1.60
2022-11-06T22:36:48.372Z,1.87
2022-11-06T22:39:16.453Z,1.70
2022-11-06T22:41:45.982Z,1.90
2022-11-06T22:44:14.260Z,2.17
2022-11-06T22:46:42.894Z,1.73
2022-11-06T22:49:10.983Z,1.67
2022-11-06T22:51:38.951Z,1.67
2022-11-06T22:54:07.214Z,1.50
2022-11-06T22:56:35.361Z,1.60
2022-11-06T22:59:07.755Z,1.70
2022-11-06T23:01:41.756Z,1.53
2022-11-06T23:04:15.015Z,1.50
2022-11-06T23:06:44.309Z,1.80
2022-11-06T23:09:13.119Z,1.50
2022-11-06T23:11:41.269Z,1.50
2022-11-06T23:14:10.812Z,1.70
2022-11-06T23:16:56.236Z,1.50
2022-11-06T23:19:24.854Z,1.73
2022-11-06T23:22:13.561Z,1.80
2022-11-06T23:24:41.663Z,1.43
2022-11-06T23:27:10.998Z,1.60
2022-11-06T23:29:40.860Z,1.57
2022-11-06T23:32:08.913Z,1.50
2022-11-06T23:34:36.942Z,1.67
2022-11-06T23:37:04.951Z,1.87
2022-11-06T23:39:32.987Z,1.50
2022-11-06T23:42:01.120Z,1.53
2022-11-06T23:44:46.531Z,1.53
2022-11-06T23:47:16.025Z,1.60
2022-11-06T23:49:44.073Z,1.80
2022-11-06T23:52:12.209Z,1.80
2022-11-06T23:54:40.178Z,1.80
2022-11-06T23:57:08.820Z,1.77
2022-11-06T23:59:36.872Z,1.77
